sensor_id;sensor_type;location;lat;lon;timestamp;pressure;altitude;pressure_sealevel;temperature;humidity
40788;BME280;26497;52.494;7.546;2023-02-01T00:00:29;101039.13;;;7.64;68.66
40788;BME280;26497;52.494;7.546;2023-02-01T00:02:57;101046.41;;;7.81;67.88
40788;BME280;26497;52.494;7.546;2023-02-01T00:05:24;101046.09;;;7.62;68.21
40788;BME280;26497;52.494;7.546;2023-02-01T00:07:51;101027.81;;;7.67;68.48
40788;BME280;26497;52.494;7.546;2023-02-01T00:10:18;101030.28;;;7.59;68.71
40788;BME280;26497;52.494;7.546;2023-02-01T00:12:45;101018.75;;;7.51;69.65
40788;BME280;26497;52.494;7.546;2023-02-01T00:15:12;101012.16;;;7.73;69.11
40788;BME280;26497;52.494;7.546;2023-02-01T00:17:39;100996.56;;;7.84;68.51
40788;BME280;26497;52.494;7.546;2023-02-01T00:20:10;100990.41;;;7.82;68.97
40788;BME280;26497;52.494;7.546;2023-02-01T00:22:37;100984.50;;;7.97;68.24
40788;BME280;26497;52.494;7.546;2023-02-01T00:25:05;100992.53;;;8.06;67.97
40788;BME280;26497;52.494;7.546;2023-02-01T00:27:32;100991.84;;;8.20;67.50
40788;BME280;26497;52.494;7.546;2023-02-01T00:29:59;100987.34;;;8.11;67.37
40788;BME280;26497;52.494;7.546;2023-02-01T00:34:32;100979.25;;;7.97;67.77
40788;BME280;26497;52.494;7.546;2023-02-01T00:36:59;100976.75;;;8.05;67.66
40788;BME280;26497;52.494;7.546;2023-02-01T00:39:26;100967.94;;;8.00;67.94
40788;BME280;26497;52.494;7.546;2023-02-01T00:41:53;100959.41;;;8.16;67.43
40788;BME280;26497;52.494;7.546;2023-02-01T00:44:20;100956.09;;;8.31;66.95
40788;BME280;26497;52.494;7.546;2023-02-01T00:46:47;100958.69;;;8.26;66.69
40788;BME280;26497;52.494;7.546;2023-02-01T00:49:14;100972.63;;;8.22;67.15
40788;BME280;26497;52.494;7.546;2023-02-01T00:51:42;100960.81;;;7.92;67.44
40788;BME280;26497;52.494;7.546;2023-02-01T00:54:09;100955.94;;;8.19;67.61
40788;BME280;26497;52.494;7.546;2023-02-01T00:56:36;100958.69;;;8.26;66.77
40788;BME280;26497;52.494;7.546;2023-02-01T00:59:03;100964.94;;;8.35;66.70
40788;BME280;26497;52.494;7.546;2023-02-01T01:01:30;100967.53;;;8.33;66.59
40788;BME280;26497;52.494;7.546;2023-02-01T01:03:58;100972.13;;;8.48;66.41
40788;BME280;26497;52.494;7.546;2023-02-01T01:06:27;100975.69;;;8.52;65.83
40788;BME280;26497;52.494;7.546;2023-02-01T01:08:58;100972.91;;;8.43;65.95
40788;BME280;26497;52.494;7.546;2023-02-01T01:11:27;100976.34;;;8.38;66.25
40788;BME280;26497;52.494;7.546;2023-02-01T01:13:56;100978.34;;;8.53;66.25
40788;BME280;26497;52.494;7.546;2023-02-01T01:16:26;100978.63;;;8.12;67.12
40788;BME280;26497;52.494;7.546;2023-02-01T01:18:53;100978.75;;;8.23;66.96
40788;BME280;26497;52.494;7.546;2023-02-01T01:21:20;100981.59;;;8.38;66.73
40788;BME280;26497;52.494;7.546;2023-02-01T01:23:47;100974.59;;;8.37;66.25
40788;BME280;26497;52.494;7.546;2023-02-01T01:26:18;100959.63;;;8.32;66.34
40788;BME280;26497;52.494;7.546;2023-02-01T01:28:46;100966.56;;;8.26;66.69
40788;BME280;26497;52.494;7.546;2023-02-01T01:31:15;100967.78;;;8.50;66.02
40788;BME280;26497;52.494;7.546;2023-02-01T01:33:43;100958.84;;;8.39;66.27
40788;BME280;26497;52.494;7.546;2023-02-01T01:36:11;100953.22;;;8.12;66.51
40788;BME280;26497;52.494;7.546;2023-02-01T01:38:39;100935.28;;;8.45;66.01
40788;BME280;26497;52.494;7.546;2023-02-01T01:41:16;100935.84;;;8.22;66.37
40788;BME280;26497;52.494;7.546;2023-02-01T01:43:50;100928.75;;;8.15;66.49
40788;BME280;26497;52.494;7.546;2023-02-01T01:46:20;100930.44;;;8.11;66.23
40788;BME280;26497;52.494;7.546;2023-02-01T01:48:52;100914.75;;;8.16;66.23
40788;BME280;26497;52.494;7.546;2023-02-01T01:51:22;100913.16;;;8.29;65.87
40788;BME280;26497;52.494;7.546;2023-02-01T01:53:59;100916.00;;;8.48;65.37
40788;BME280;26497;52.494;7.546;2023-02-01T01:56:29;100907.97;;;8.34;65.84
40788;BME280;26497;52.494;7.546;2023-02-01T01:58:59;100915.78;;;8.27;66.26
40788;BME280;26497;52.494;7.546;2023-02-01T02:01:26;100904.28;;;8.21;66.40
40788;BME280;26497;52.494;7.546;2023-02-01T02:03:54;100902.59;;;8.24;65.76
40788;BME280;26497;52.494;7.546;2023-02-01T02:06:32;100902.78;;;8.41;65.29
40788;BME280;26497;52.494;7.546;2023-02-01T02:09:01;100904.81;;;8.61;65.42
40788;BME280;26497;52.494;7.546;2023-02-01T02:11:29;100894.31;;;8.61;64.68
40788;BME280;26497;52.494;7.546;2023-02-01T02:13:57;100896.00;;;8.54;64.96
40788;BME280;26497;52.494;7.546;2023-02-01T02:17:02;100884.72;;;8.68;65.03
40788;BME280;26497;52.494;7.546;2023-02-01T02:20:11;100876.00;;;8.70;64.62
40788;BME280;26497;52.494;7.546;2023-02-01T02:23:11;100882.84;;;8.54;64.92
40788;BME280;26497;52.494;7.546;2023-02-01T02:26:19;100884.19;;;8.24;66.13
40788;BME280;26497;52.494;7.546;2023-02-01T02:32:35;100871.97;;;8.26;66.49
40788;BME280;26497;52.494;7.546;2023-02-01T02:35:17;100873.97;;;8.46;66.70
40788;BME280;26497;52.494;7.546;2023-02-01T02:37:56;100861.84;;;8.58;65.84
40788;BME280;26497;52.494;7.546;2023-02-01T02:40:33;100858.56;;;8.79;65.40
40788;BME280;26497;52.494;7.546;2023-02-01T02:43:10;100864.72;;;8.82;64.77
40788;BME280;26497;52.494;7.546;2023-02-01T02:46:17;100859.44;;;8.78;65.34
40788;BME280;26497;52.494;7.546;2023-02-01T02:49:10;100864.75;;;8.85;65.33
40788;BME280;26497;52.494;7.546;2023-02-01T02:51:43;100857.66;;;8.78;64.95
40788;BME280;26497;52.494;7.546;2023-02-01T02:54:31;100865.31;;;8.53;66.75
40788;BME280;26497;52.494;7.546;2023-02-01T02:57:20;100854.00;;;8.61;66.55
40788;BME280;26497;52.494;7.546;2023-02-01T03:00:08;100849.63;;;8.66;66.09
40788;BME280;26497;52.494;7.546;2023-02-01T03:02:54;100847.78;;;8.52;67.03
40788;BME280;26497;52.494;7.546;2023-02-01T03:05:43;100833.13;;;8.78;66.94
40788;BME280;26497;52.494;7.546;2023-02-01T03:08:14;100830.44;;;8.73;68.33
40788;BME280;26497;52.494;7.546;2023-02-01T03:10:50;100825.78;;;8.47;68.76
40788;BME280;26497;52.494;7.546;2023-02-01T03:13:33;100819.59;;;8.42;70.26
40788;BME280;26497;52.494;7.546;2023-02-01T03:16:07;100817.81;;;8.41;70.70
40788;BME280;26497;52.494;7.546;2023-02-01T03:18:42;100811.06;;;8.65;70.42
40788;BME280;26497;52.494;7.546;2023-02-01T03:21:17;100814.53;;;8.59;70.49
40788;BME280;26497;52.494;7.546;2023-02-01T03:23:49;100810.94;;;8.49;71.28
40788;BME280;26497;52.494;7.546;2023-02-01T03:26:18;100822.34;;;8.53;71.53
40788;BME280;26497;52.494;7.546;2023-02-01T03:28:54;100823.31;;;8.60;71.38
40788;BME280;26497;52.494;7.546;2023-02-01T03:31:22;100810.88;;;8.46;71.24
40788;BME280;26497;52.494;7.546;2023-02-01T03:33:50;100806.41;;;8.40;71.35
40788;BME280;26497;52.494;7.546;2023-02-01T03:36:25;100809.94;;;8.43;71.71
40788;BME280;26497;52.494;7.546;2023-02-01T03:39:00;100813.63;;;8.55;70.73
40788;BME280;26497;52.494;7.546;2023-02-01T03:41:35;100816.25;;;8.55;70.90
40788;BME280;26497;52.494;7.546;2023-02-01T03:44:12;100812.84;;;8.66;71.68
40788;BME280;26497;52.494;7.546;2023-02-01T03:46:45;100809.28;;;8.58;72.71
40788;BME280;26497;52.494;7.546;2023-02-01T03:49:19;100812.50;;;8.35;73.50
40788;BME280;26497;52.494;7.546;2023-02-01T03:51:49;100794.16;;;8.38;73.88
40788;BME280;26497;52.494;7.546;2023-02-01T03:54:19;100799.38;;;8.36;73.88
40788;BME280;26497;52.494;7.546;2023-02-01T03:56:47;100808.34;;;8.52;73.42
40788;BME280;26497;52.494;7.546;2023-02-01T03:59:15;100812.81;;;8.60;73.06
40788;BME280;26497;52.494;7.546;2023-02-01T04:01:42;100795.00;;;8.37;73.14
40788;BME280;26497;52.494;7.546;2023-02-01T04:04:09;100798.50;;;8.36;73.53
40788;BME280;26497;52.494;7.546;2023-02-01T04:06:36;100798.66;;;8.50;73.60
40788;BME280;26497;52.494;7.546;2023-02-01T04:09:03;100795.34;;;8.69;72.49
40788;BME280;26497;52.494;7.546;2023-02-01T04:11:32;100793.53;;;8.61;72.80
40788;BME280;26497;52.494;7.546;2023-02-01T04:13:59;100798.78;;;8.64;72.72
40788;BME280;26497;52.494;7.546;2023-02-01T04:16:30;100779.47;;;8.55;73.18
40788;BME280;26497;52.494;7.546;2023-02-01T04:18:57;100785.53;;;8.50;73.65
40788;BME280;26497;52.494;7.546;2023-02-01T04:21:25;100789.09;;;8.55;74.35
40788;BME280;26497;52.494;7.546;2023-02-01T04:23:52;100782.94;;;8.53;74.77
40788;BME280;26497;52.494;7.546;2023-02-01T04:26:20;100778.63;;;8.63;74.50
40788;BME280;26497;52.494;7.546;2023-02-01T04:28:48;100780.47;;;8.72;74.22
40788;BME280;26497;52.494;7.546;2023-02-01T04:31:17;100782.13;;;8.60;74.69
40788;BME280;26497;52.494;7.546;2023-02-01T04:33:51;100790.97;;;8.68;74.55
40788;BME280;26497;52.494;7.546;2023-02-01T04:36:19;100776.69;;;8.45;75.46
40788;BME280;26497;52.494;7.546;2023-02-01T04:38:47;100781.97;;;8.46;75.91
40788;BME280;26497;52.494;7.546;2023-02-01T04:41:14;100780.19;;;8.47;76.51
40788;BME280;26497;52.494;7.546;2023-02-01T04:43:44;100783.84;;;8.57;75.87
40788;BME280;26497;52.494;7.546;2023-02-01T04:46:13;100781.00;;;8.39;76.62
40788;BME280;26497;52.494;7.546;2023-02-01T04:48:40;100781.09;;;8.47;76.52
40788;BME280;26497;52.494;7.546;2023-02-01T04:51:09;100785.44;;;8.42;77.54
40788;BME280;26497;52.494;7.546;2023-02-01T04:53:36;100768.78;;;8.45;77.99
40788;BME280;26497;52.494;7.546;2023-02-01T04:56:04;100768.09;;;8.58;77.59
40788;BME280;26497;52.494;7.546;2023-02-01T04:58:31;100760.16;;;8.53;78.00
40788;BME280;26497;52.494;7.546;2023-02-01T05:00:58;100756.72;;;8.61;77.60
40788;BME280;26497;52.494;7.546;2023-02-01T05:03:29;100759.41;;;8.68;77.87
40788;BME280;26497;52.494;7.546;2023-02-01T05:05:56;100742.53;;;8.46;78.04
40788;BME280;26497;52.494;7.546;2023-02-01T05:08:23;100752.22;;;8.49;78.29
40788;BME280;26497;52.494;7.546;2023-02-01T05:10:51;100740.94;;;8.62;78.24
40788;BME280;26497;52.494;7.546;2023-02-01T05:13:18;100744.44;;;8.63;77.97
40788;BME280;26497;52.494;7.546;2023-02-01T05:16:04;100746.31;;;8.75;77.56
40788;BME280;26497;52.494;7.546;2023-02-01T05:18:32;100741.78;;;8.58;77.60
40788;BME280;26497;52.494;7.546;2023-02-01T05:20:59;100742.75;;;8.68;77.29
40788;BME280;26497;52.494;7.546;2023-02-01T05:23:27;100744.56;;;8.74;76.70
40788;BME280;26497;52.494;7.546;2023-02-01T05:25:58;100733.94;;;8.61;77.15
40788;BME280;26497;52.494;7.546;2023-02-01T05:28:27;100750.66;;;8.71;76.94
40788;BME280;26497;52.494;7.546;2023-02-01T05:30:54;100745.50;;;8.82;75.81
40788;BME280;26497;52.494;7.546;2023-02-01T05:33:21;100739.28;;;8.75;75.67
40788;BME280;26497;52.494;7.546;2023-02-01T05:35:49;100737.44;;;8.62;76.01
40788;BME280;26497;52.494;7.546;2023-02-01T05:38:17;100746.44;;;8.92;74.79
40788;BME280;26497;52.494;7.546;2023-02-01T05:40:44;100750.19;;;9.20;73.95
40788;BME280;26497;52.494;7.546;2023-02-01T05:43:15;100751.75;;;8.98;73.32
40788;BME280;26497;52.494;7.546;2023-02-01T05:45:42;100745.69;;;9.07;73.48
40788;BME280;26497;52.494;7.546;2023-02-01T05:48:09;100746.59;;;9.13;72.60
40788;BME280;26497;52.494;7.546;2023-02-01T05:50:36;100751.00;;;9.13;72.33
40788;BME280;26497;52.494;7.546;2023-02-01T05:53:05;100746.59;;;9.10;71.73
40788;BME280;26497;52.494;7.546;2023-02-01T05:55:32;100760.72;;;9.25;71.87
40788;BME280;26497;52.494;7.546;2023-02-01T05:57:59;100754.59;;;9.26;70.92
40788;BME280;26497;52.494;7.546;2023-02-01T06:00:26;100761.66;;;9.33;70.52
40788;BME280;26497;52.494;7.546;2023-02-01T06:02:53;100769.59;;;9.39;70.08
40788;BME280;26497;52.494;7.546;2023-02-01T06:05:20;100769.53;;;9.33;69.87
40788;BME280;26497;52.494;7.546;2023-02-01T06:07:47;100780.94;;;9.34;69.77
40788;BME280;26497;52.494;7.546;2023-02-01T06:10:17;100770.50;;;9.46;69.70
40788;BME280;26497;52.494;7.546;2023-02-01T06:12:45;100773.91;;;9.33;69.30
40788;BME280;26497;52.494;7.546;2023-02-01T06:15:13;100784.53;;;9.45;69.85
40788;BME280;26497;52.494;7.546;2023-02-01T06:17:41;100784.50;;;9.37;69.15
40788;BME280;26497;52.494;7.546;2023-02-01T06:20:11;100779.28;;;9.47;69.26
40788;BME280;26497;52.494;7.546;2023-02-01T06:22:38;100788.00;;;9.36;69.15
40788;BME280;26497;52.494;7.546;2023-02-01T06:25:09;100784.53;;;9.45;69.54
40788;BME280;26497;52.494;7.546;2023-02-01T06:27:38;100773.03;;;9.30;68.85
40788;BME280;26497;52.494;7.546;2023-02-01T06:30:07;100785.38;;;9.44;68.94
40788;BME280;26497;52.494;7.546;2023-02-01T06:32:34;100781.84;;;9.37;68.29
40788;BME280;26497;52.494;7.546;2023-02-01T06:35:01;100788.81;;;9.30;68.07
40788;BME280;26497;52.494;7.546;2023-02-01T06:37:28;100790.59;;;9.30;68.28
40788;BME280;26497;52.494;7.546;2023-02-01T06:39:55;100789.72;;;9.31;68.65
40788;BME280;26497;52.494;7.546;2023-02-01T06:42:22;100779.34;;;9.61;67.18
40788;BME280;26497;52.494;7.546;2023-02-01T06:44:51;100790.69;;;9.46;67.56
40788;BME280;26497;52.494;7.546;2023-02-01T06:47:18;100777.59;;;9.63;66.96
40788;BME280;26497;52.494;7.546;2023-02-01T06:49:45;100781.06;;;9.55;66.94
40788;BME280;26497;52.494;7.546;2023-02-01T06:52:12;100781.16;;;9.66;65.89
40788;BME280;26497;52.494;7.546;2023-02-01T06:54:39;100784.59;;;9.53;66.52
40788;BME280;26497;52.494;7.546;2023-02-01T06:57:06;100786.41;;;9.68;66.64
40788;BME280;26497;52.494;7.546;2023-02-01T06:59:33;100796.97;;;9.69;66.18
40788;BME280;26497;52.494;7.546;2023-02-01T07:02:01;100803.16;;;9.74;66.32
40788;BME280;26497;52.494;7.546;2023-02-01T07:04:28;100801.19;;;9.42;65.98
40788;BME280;26497;52.494;7.546;2023-02-01T07:06:55;100798.53;;;9.41;66.75
40788;BME280;26497;52.494;7.546;2023-02-01T07:09:22;100798.56;;;9.47;67.35
40788;BME280;26497;52.494;7.546;2023-02-01T07:11:49;100802.19;;;9.62;67.12
40788;BME280;26497;52.494;7.546;2023-02-01T07:14:16;100796.06;;;9.67;66.88
40788;BME280;26497;52.494;7.546;2023-02-01T07:16:43;100804.81;;;9.60;66.67
40788;BME280;26497;52.494;7.546;2023-02-01T07:19:12;100804.00;;;9.73;67.29
40788;BME280;26497;52.494;7.546;2023-02-01T07:21:39;100818.88;;;9.65;67.66
40788;BME280;26497;52.494;7.546;2023-02-01T07:24:06;100824.09;;;9.61;69.16
40788;BME280;26497;52.494;7.546;2023-02-01T07:26:33;100824.06;;;9.53;69.21
40788;BME280;26497;52.494;7.546;2023-02-01T07:29:00;100823.19;;;9.51;69.54
40788;BME280;26497;52.494;7.546;2023-02-01T07:31:27;100822.28;;;9.46;69.95
40788;BME280;26497;52.494;7.546;2023-02-01T07:33:54;100832.78;;;9.44;69.67
40788;BME280;26497;52.494;7.546;2023-02-01T07:36:24;100830.94;;;9.30;69.81
40788;BME280;26497;52.494;7.546;2023-02-01T07:38:51;100826.47;;;9.17;70.48
40788;BME280;26497;52.494;7.546;2023-02-01T07:41:18;100836.19;;;9.30;69.44
40788;BME280;26497;52.494;7.546;2023-02-01T07:43:45;100824.00;;;9.40;68.87
40788;BME280;26497;52.494;7.546;2023-02-01T07:46:13;100836.34;;;9.51;68.34
40788;BME280;26497;52.494;7.546;2023-02-01T07:48:40;100839.78;;;9.40;68.28
40788;BME280;26497;52.494;7.546;2023-02-01T07:51:11;100842.38;;;9.36;69.35
40788;BME280;26497;52.494;7.546;2023-02-01T07:53:41;100845.06;;;9.43;68.58
40788;BME280;26497;52.494;7.546;2023-02-01T07:56:12;100837.25;;;9.53;69.26
40788;BME280;26497;52.494;7.546;2023-02-01T07:58:39;100839.94;;;9.64;68.02
40788;BME280;26497;52.494;7.546;2023-02-01T08:01:14;100834.69;;;9.65;67.98
40788;BME280;26497;52.494;7.546;2023-02-01T08:03:46;100831.31;;;9.88;67.04
40788;BME280;26497;52.494;7.546;2023-02-01T08:06:13;100831.97;;;9.54;67.04
40788;BME280;26497;52.494;7.546;2023-02-01T08:08:42;100838.19;;;9.61;67.01
40788;BME280;26497;52.494;7.546;2023-02-01T08:11:10;100847.03;;;9.76;66.86
40788;BME280;26497;52.494;7.546;2023-02-01T08:13:37;100833.94;;;9.89;66.97
40788;BME280;26497;52.494;7.546;2023-02-01T08:16:07;100834.88;;;10.06;65.76
40788;BME280;26497;52.494;7.546;2023-02-01T08:18:35;100841.88;;;9.99;65.83
40788;BME280;26497;52.494;7.546;2023-02-01T08:21:04;100854.19;;;10.04;66.01
40788;BME280;26497;52.494;7.546;2023-02-01T08:23:31;100854.22;;;10.08;65.76
40788;BME280;26497;52.494;7.546;2023-02-01T08:26:07;100846.25;;;9.92;65.57
40788;BME280;26497;52.494;7.546;2023-02-01T08:28:35;100850.69;;;10.06;65.20
40788;BME280;26497;52.494;7.546;2023-02-01T08:31:06;100848.13;;;10.16;64.54
40788;BME280;26497;52.494;7.546;2023-02-01T08:33:34;100855.19;;;10.24;64.44
40788;BME280;26497;52.494;7.546;2023-02-01T08:36:04;100856.06;;;10.23;64.31
40788;BME280;26497;52.494;7.546;2023-02-01T08:38:31;100856.97;;;10.34;63.20
40788;BME280;26497;52.494;7.546;2023-02-01T08:41:06;100847.25;;;10.22;63.86
40788;BME280;26497;52.494;7.546;2023-02-01T08:43:33;100853.44;;;10.33;63.52
40788;BME280;26497;52.494;7.546;2023-02-01T08:46:00;100854.41;;;10.48;63.14
40788;BME280;26497;52.494;7.546;2023-02-01T08:48:28;100850.06;;;10.58;62.25
40788;BME280;26497;52.494;7.546;2023-02-01T08:50:55;100846.53;;;10.50;62.20
40788;BME280;26497;52.494;7.546;2023-02-01T08:53:22;100849.97;;;10.36;63.53
40788;BME280;26497;52.494;7.546;2023-02-01T08:55:49;100853.56;;;10.54;62.74
40788;BME280;26497;52.494;7.546;2023-02-01T08:58:17;100849.22;;;10.76;63.40
40788;BME280;26497;52.494;7.546;2023-02-01T09:00:45;100843.03;;;10.82;61.22
40788;BME280;26497;52.494;7.546;2023-02-01T09:03:14;100846.59;;;10.96;60.99
40788;BME280;26497;52.494;7.546;2023-02-01T09:05:41;100841.28;;;10.70;60.60
40788;BME280;26497;52.494;7.546;2023-02-01T09:08:08;100834.25;;;10.86;61.03
40788;BME280;26497;52.494;7.546;2023-02-01T09:10:36;100834.28;;;10.84;61.84
40788;BME280;26497;52.494;7.546;2023-02-01T09:13:03;100831.63;;;10.94;61.24
40788;BME280;26497;52.494;7.546;2023-02-01T09:15:32;100830.75;;;10.79;61.18
40788;BME280;26497;52.494;7.546;2023-02-01T09:17:59;100825.41;;;10.54;62.58
40788;BME280;26497;52.494;7.546;2023-02-01T09:20:26;100822.78;;;10.54;62.92
40788;BME280;26497;52.494;7.546;2023-02-01T09:22:55;100819.31;;;10.71;62.69
40788;BME280;26497;52.494;7.546;2023-02-01T09:25:22;100800.78;;;10.40;62.14
40788;BME280;26497;52.494;7.546;2023-02-01T09:27:49;100808.72;;;10.52;62.57
40788;BME280;26497;52.494;7.546;2023-02-01T09:30:17;100801.59;;;10.36;62.34
40788;BME280;26497;52.494;7.546;2023-02-01T09:32:45;100806.09;;;10.51;62.30
40788;BME280;26497;52.494;7.546;2023-02-01T09:35:12;100802.59;;;10.84;62.76
40788;BME280;26497;52.494;7.546;2023-02-01T09:37:39;100799.97;;;10.98;62.31
40788;BME280;26497;52.494;7.546;2023-02-01T09:40:10;100794.66;;;10.70;61.11
40788;BME280;26497;52.494;7.546;2023-02-01T09:43:00;100781.50;;;10.69;61.29
40788;BME280;26497;52.494;7.546;2023-02-01T09:45:40;100787.66;;;10.74;62.80
40788;BME280;26497;52.494;7.546;2023-02-01T09:48:16;100795.56;;;10.77;62.32
40788;BME280;26497;52.494;7.546;2023-02-01T09:50:48;100792.94;;;10.93;61.60
40788;BME280;26497;52.494;7.546;2023-02-01T09:53:21;100793.78;;;10.84;62.41
40788;BME280;26497;52.494;7.546;2023-02-01T09:55:55;100787.66;;;10.88;62.56
40788;BME280;26497;52.494;7.546;2023-02-01T09:58:30;100803.44;;;10.69;62.06
40788;BME280;26497;52.494;7.546;2023-02-01T10:01:02;100802.59;;;10.81;62.38
40788;BME280;26497;52.494;7.546;2023-02-01T10:03:34;100803.50;;;10.96;61.38
40788;BME280;26497;52.494;7.546;2023-02-01T10:06:27;100794.69;;;10.81;61.65
40788;BME280;26497;52.494;7.546;2023-02-01T10:09:21;100792.91;;;10.63;62.26
40788;BME280;26497;52.494;7.546;2023-02-01T10:12:19;100787.63;;;10.58;61.67
40788;BME280;26497;52.494;7.546;2023-02-01T10:15:01;100786.75;;;10.53;62.53
40788;BME280;26497;52.494;7.546;2023-02-01T10:17:45;100780.56;;;10.42;62.85
40788;BME280;26497;52.494;7.546;2023-02-01T10:20:23;100796.34;;;10.36;62.91
40788;BME280;26497;52.494;7.546;2023-02-01T10:23:03;100789.38;;;10.70;61.67
40788;BME280;26497;52.494;7.546;2023-02-01T10:25:36;100784.13;;;10.62;61.52
40788;BME280;26497;52.494;7.546;2023-02-01T10:28:13;100770.91;;;10.61;61.61
40788;BME280;26497;52.494;7.546;2023-02-01T10:30:45;100770.06;;;10.84;62.04
40788;BME280;26497;52.494;7.546;2023-02-01T10:33:16;100779.75;;;10.77;61.58
40788;BME280;26497;52.494;7.546;2023-02-01T10:35:46;100785.88;;;10.56;60.95
40788;BME280;26497;52.494;7.546;2023-02-01T10:38:23;100764.78;;;10.70;60.73
40788;BME280;26497;52.494;7.546;2023-02-01T10:40:52;100769.16;;;10.47;61.71
40788;BME280;26497;52.494;7.546;2023-02-01T10:43:20;100754.97;;;10.11;63.72
40788;BME280;26497;52.494;7.546;2023-02-01T10:45:47;100749.72;;;10.16;64.45
40788;BME280;26497;52.494;7.546;2023-02-01T10:48:14;100750.56;;;10.07;64.76
40788;BME280;26497;52.494;7.546;2023-02-01T10:50:49;100742.69;;;10.21;66.73
40788;BME280;26497;52.494;7.546;2023-02-01T10:53:23;100738.25;;;10.01;67.40
40788;BME280;26497;52.494;7.546;2023-02-01T10:55:52;100734.59;;;9.62;68.93
40788;BME280;26497;52.494;7.546;2023-02-01T10:58:26;100723.09;;;9.44;71.83
40788;BME280;26497;52.494;7.546;2023-02-01T11:00:57;100723.09;;;9.41;72.57
40788;BME280;26497;52.494;7.546;2023-02-01T11:03:41;100723.03;;;9.32;73.86
40788;BME280;26497;52.494;7.546;2023-02-01T11:06:22;100721.25;;;9.25;74.66
40788;BME280;26497;52.494;7.546;2023-02-01T11:08:53;100706.44;;;9.46;74.32
40788;BME280;26497;52.494;7.546;2023-02-01T11:11:21;100702.66;;;9.00;75.29
40788;BME280;26497;52.494;7.546;2023-02-01T11:13:54;100698.34;;;9.07;76.84
40788;BME280;26497;52.494;7.546;2023-02-01T11:16:28;100702.56;;;8.84;76.67
40788;BME280;26497;52.494;7.546;2023-02-01T11:18:55;100706.09;;;8.88;76.33
40788;BME280;26497;52.494;7.546;2023-02-01T11:21:26;100704.50;;;9.12;76.49
40788;BME280;26497;52.494;7.546;2023-02-01T11:23:53;100694.94;;;9.33;76.21
40788;BME280;26497;52.494;7.546;2023-02-01T11:26:23;100690.53;;;9.28;75.88
40788;BME280;26497;52.494;7.546;2023-02-01T11:28:56;100673.91;;;9.33;75.92
40788;BME280;26497;52.494;7.546;2023-02-01T11:31:26;100682.69;;;9.36;75.83
40788;BME280;26497;52.494;7.546;2023-02-01T11:33:58;100676.59;;;9.40;75.94
40788;BME280;26497;52.494;7.546;2023-02-01T11:36:31;100685.28;;;9.32;76.18
40788;BME280;26497;52.494;7.546;2023-02-01T11:39:18;100690.63;;;9.42;77.20
40788;BME280;26497;52.494;7.546;2023-02-01T11:42:02;100680.94;;;9.37;77.15
40788;BME280;26497;52.494;7.546;2023-02-01T11:44:34;100694.97;;;9.31;77.59
40788;BME280;26497;52.494;7.546;2023-02-01T11:47:24;100693.19;;;9.22;79.26
40788;BME280;26497;52.494;7.546;2023-02-01T11:49:53;100692.34;;;9.34;78.69
40788;BME280;26497;52.494;7.546;2023-02-01T11:52:40;100670.19;;;8.93;80.93
40788;BME280;26497;52.494;7.546;2023-02-01T11:55:24;100675.53;;;9.06;80.08
40788;BME280;26497;52.494;7.546;2023-02-01T11:58:10;100672.03;;;9.07;80.98
40788;BME280;26497;52.494;7.546;2023-02-01T12:00:56;100666.72;;;8.97;81.28
40788;BME280;26497;52.494;7.546;2023-02-01T12:04:10;100666.72;;;9.00;81.72
40788;BME280;26497;52.494;7.546;2023-02-01T12:06:49;100664.94;;;8.95;81.28
40788;BME280;26497;52.494;7.546;2023-02-01T12:09:40;100668.38;;;8.83;81.70
40788;BME280;26497;52.494;7.546;2023-02-01T12:12:21;100650.97;;;9.08;81.08
40788;BME280;26497;52.494;7.546;2023-02-01T12:15:18;100645.72;;;9.04;81.19
40788;BME280;26497;52.494;7.546;2023-02-01T12:21:06;100651.91;;;9.17;82.44
40788;BME280;26497;52.494;7.546;2023-02-01T12:23:59;100634.38;;;9.22;82.07
40788;BME280;26497;52.494;7.546;2023-02-01T12:26:52;100642.38;;;9.40;81.52
40788;BME280;26497;52.494;7.546;2023-02-01T12:29:37;100631.81;;;9.36;80.85
40788;BME280;26497;52.494;7.546;2023-02-01T12:32:18;100648.50;;;9.42;80.53
40788;BME280;26497;52.494;7.546;2023-02-01T12:35:13;100639.81;;;9.65;79.74
40788;BME280;26497;52.494;7.546;2023-02-01T12:37:57;100636.25;;;9.44;80.05
40788;BME280;26497;52.494;7.546;2023-02-01T12:40:43;100649.19;;;9.01;81.43
40788;BME280;26497;52.494;7.546;2023-02-01T12:43:20;100657.13;;;9.06;82.29
40788;BME280;26497;52.494;7.546;2023-02-01T12:45:56;100657.13;;;9.07;82.14
40788;BME280;26497;52.494;7.546;2023-02-01T12:48:29;100655.25;;;8.91;82.41
40788;BME280;26497;52.494;7.546;2023-02-01T12:51:02;100627.19;;;8.90;82.92
40788;BME280;26497;52.494;7.546;2023-02-01T12:53:44;100642.09;;;8.91;83.39
40788;BME280;26497;52.494;7.546;2023-02-01T12:56:16;100621.03;;;8.83;83.71
40788;BME280;26497;52.494;7.546;2023-02-01T12:58:50;100615.88;;;8.98;83.77
40788;BME280;26497;52.494;7.546;2023-02-01T13:01:22;100616.88;;;9.33;82.42
40788;BME280;26497;52.494;7.546;2023-02-01T13:03:58;100609.09;;;9.63;84.85
40788;BME280;26497;52.494;7.546;2023-02-01T13:06:34;100625.81;;;9.94;83.92
40788;BME280;26497;52.494;7.546;2023-02-01T13:09:08;100623.22;;;10.35;83.76
40788;BME280;26497;52.494;7.546;2023-02-01T13:11:39;100629.34;;;10.01;81.64
40788;BME280;26497;52.494;7.546;2023-02-01T13:14:19;100644.31;;;10.28;80.18
40788;BME280;26497;52.494;7.546;2023-02-01T13:16:53;100671.53;;;10.16;78.49
40788;BME280;26497;52.494;7.546;2023-02-01T13:19:27;100648.66;;;9.98;78.76
40788;BME280;26497;52.494;7.546;2023-02-01T13:21:59;100656.53;;;9.77;79.46
40788;BME280;26497;52.494;7.546;2023-02-01T13:24:33;100654.78;;;9.82;79.93
40788;BME280;26497;52.494;7.546;2023-02-01T13:27:03;100662.69;;;9.86;79.14
40788;BME280;26497;52.494;7.546;2023-02-01T13:29:33;100664.47;;;9.91;78.98
40788;BME280;26497;52.494;7.546;2023-02-01T13:32:27;100667.97;;;9.85;78.39